Time;durP1;ratioP1;P1;durP2;ratioP2;P2;SDS_P1;SDS_P2;PMS_P1;PMS_P2;Temp;Humidity;BMP_temperature;BMP_pressure;BME280_temperature;BME280_humidity;BME280_pressure;Samples;Min_cycle;Max_cycle;Signal;HPM_P1;HPM_P2
2021/11/25 00:02:09;;;;;;;;;38.75;30.00;;;;;5.72;62.68;100537.06;5078381;28;45464;-61
2021/11/25 00:04:34;;;;;;;;;29.50;27.75;;;;;5.67;62.87;100536.53;5077858;28;55677;-61
2021/11/25 00:06:59;;;;;;;;;53.50;43.00;;;;;5.60;63.08;100530.06;5077971;28;60469;-61
2021/11/25 00:09:25;;;;;;;;;35.00;31.50;;;;;5.54;63.28;100533.06;5059589;28;58880;-61
2021/11/25 00:11:50;;;;;;;;;34.50;33.00;;;;;5.50;63.12;100527.25;5077609;28;63294;-61
2021/11/25 00:14:15;;;;;;;;;38.25;33.75;;;;;5.48;63.29;100526.50;5078193;28;45485;-62
2021/11/25 00:16:41;;;;;;;;;38.00;32.00;;;;;5.45;63.43;100526.72;5078474;28;45265;-61
2021/11/25 00:19:06;;;;;;;;;34.50;31.75;;;;;5.40;63.55;100529.63;5078178;28;45547;-61
2021/11/25 00:21:32;;;;;;;;;38.75;29.75;;;;;5.35;63.26;100536.91;5077966;28;45444;-61
2021/11/25 00:23:57;;;;;;;;;33.25;28.75;;;;;5.30;63.70;100533.78;5059175;28;58364;-61
2021/11/25 00:26:23;;;;;;;;;30.75;27.25;;;;;5.26;63.89;100522.72;5078069;28;45376;-61
2021/11/25 00:28:48;;;;;;;;;32.75;27.00;;;;;5.23;63.77;100530.75;5077947;28;45297;-61
2021/11/25 00:31:13;;;;;;;;;31.50;26.00;;;;;5.21;63.97;100530.00;5077250;28;64304;-61
2021/11/25 00:33:39;;;;;;;;;20.75;20.00;;;;;5.18;63.97;100528.44;5076946;28;65178;-61
2021/11/25 00:36:05;;;;;;;;;23.00;21.00;;;;;5.13;64.17;100517.50;5077801;28;45240;-61
2021/11/25 00:38:30;;;;;;;;;29.75;22.00;;;;;5.08;64.32;100516.97;5059750;28;45272;-61
2021/11/25 00:40:55;;;;;;;;;25.00;20.50;;;;;5.04;64.43;100507.69;5058542;28;65800;-61
2021/11/25 00:43:21;;;;;;;;;33.00;26.50;;;;;5.00;64.29;100508.81;5077086;28;64279;-61
2021/11/25 00:45:47;;;;;;;;;30.50;24.00;;;;;4.96;64.41;100504.75;5077471;28;52950;-61
2021/11/25 00:48:12;;;;;;;;;24.25;20.75;;;;;4.93;64.59;100504.94;5077738;28;45684;-61
2021/11/25 00:50:39;;;;;;;;;22.50;19.25;;;;;4.87;64.80;100501.81;5077169;28;60297;-62
2021/11/25 00:53:04;;;;;;;;;24.50;21.00;;;;;4.84;64.92;100503.78;5077652;28;45484;-61
2021/11/25 00:55:29;;;;;;;;;26.50;24.25;;;;;4.82;64.87;100495.25;5059619;28;45934;-61
2021/11/25 00:57:55;;;;;;;;;28.75;22.75;;;;;4.80;65.24;100503.13;5077163;28;61695;-61
2021/11/25 01:00:21;;;;;;;;;28.00;22.50;;;;;4.79;65.14;100503.25;5076895;28;65366;-61
2021/11/25 01:02:46;;;;;;;;;26.25;21.00;;;;;4.77;65.45;100497.31;5077587;28;45223;-61
2021/11/25 01:05:13;;;;;;;;;32.50;27.25;;;;;4.75;65.37;100497.41;5077586;28;45348;-61
2021/11/25 01:07:39;;;;;;;;;37.00;29.50;;;;;4.72;65.62;100497.63;5059533;28;45538;-61
2021/11/25 01:10:05;;;;;;;;;31.75;31.00;;;;;4.71;65.73;100503.75;5077217;28;46290;-61
2021/11/25 01:12:31;;;;;;;;;30.25;26.50;;;;;4.71;65.86;100503.75;5075438;28;45185;-61
2021/11/25 01:14:56;;;;;;;;;32.00;26.75;;;;;4.69;66.19;100506.44;5077411;28;45331;-61
2021/11/25 01:17:22;;;;;;;;;36.00;28.00;;;;;4.72;66.42;100518.44;5058053;28;63192;-61
2021/11/25 01:19:47;;;;;;;;;26.50;21.75;;;;;4.73;66.17;100512.28;5077213;28;46284;-61
2021/11/25 01:22:13;;;;;;;;;29.50;28.25;;;;;4.74;66.68;100509.59;5077050;28;45345;-61
2021/11/25 01:24:38;;;;;;;;;26.00;24.50;;;;;4.76;66.74;100514.72;5058236;28;59436;-61
2021/11/25 01:27:04;;;;;;;;;34.75;28.75;;;;;4.78;66.99;100518.00;5077156;28;45560;-61
2021/11/25 01:29:29;;;;;;;;;27.75;19.25;;;;;4.80;66.93;100516.16;5075675;28;46563;-61
2021/11/25 01:31:54;;;;;;;;;37.75;24.00;;;;;4.84;66.89;100512.41;5076330;28;58578;-61
2021/11/25 01:34:20;;;;;;;;;28.25;22.00;;;;;4.88;66.96;100519.09;5076438;28;58461;-61
2021/11/25 01:36:45;;;;;;;;;33.25;26.75;;;;;4.92;67.03;100522.34;5077220;28;45471;-61
2021/11/25 01:39:11;;;;;;;;;34.25;28.75;;;;;4.97;67.06;100527.25;5076223;28;62288;-61
2021/11/25 01:41:38;;;;;;;;;30.50;25.75;;;;;5.02;66.85;100525.19;5076767;28;45504;-61
2021/11/25 01:44:03;;;;;;;;;29.50;29.25;;;;;5.06;66.88;100521.44;5058484;28;45538;-61
2021/11/25 01:46:29;;;;;;;;;30.25;26.75;;;;;5.10;66.85;100515.09;5077053;28;45485;-61
2021/11/25 01:48:54;;;;;;;;;30.75;29.00;;;;;5.14;66.69;100513.13;5076137;28;61976;-61
2021/11/25 01:51:20;;;;;;;;;30.25;27.75;;;;;5.16;66.69;100508.63;5076089;28;64745;-61
2021/11/25 01:53:46;;;;;;;;;32.00;27.75;;;;;5.19;66.48;100514.50;5076691;28;45270;-61
2021/11/25 01:56:12;;;;;;;;;33.25;23.50;;;;;5.23;66.53;100512.50;5076673;28;45523;-61
2021/11/25 01:58:37;;;;;;;;;36.50;28.50;;;;;5.27;66.28;100503.56;5057948;28;47730;-61
2021/11/25 02:01:06;;;;;;;;;31.50;27.00;;;;;5.31;66.44;100506.78;5075946;28;60111;-61
2021/11/25 02:03:31;;;;;;;;;34.25;26.75;;;;;5.34;66.39;100512.63;5076783;28;45343;-61
2021/11/25 02:05:57;;;;;;;;;32.75;29.00;;;;;5.35;66.21;100513.44;5058522;28;45283;-61
2021/11/25 02:08:22;;;;;;;;;32.75;25.75;;;;;5.35;66.52;100509.09;5075735;28;62399;-62
2021/11/25 02:10:49;;;;;;;;;27.00;23.25;;;;;5.38;66.20;100504.63;5057547;28;59483;-62
2021/11/25 02:13:14;;;;;;;;;36.25;26.75;;;;;5.39;66.13;100495.84;5076417;28;45248;-61
2021/11/25 02:15:40;;;;;;;;;28.75;24.00;;;;;5.38;66.20;100495.00;5058287;28;45263;-61
2021/11/25 02:18:09;;;;;;;;;19.75;19.75;;;;;5.41;66.11;100505.22;5076288;28;45268;-61
2021/11/25 02:20:36;;;;;;;;;27.25;25.00;;;;;5.42;65.96;100513.91;5076421;28;45442;-61
2021/11/25 02:23:02;;;;;;;;;30.00;25.25;;;;;5.42;66.00;100506.91;5076157;28;45335;-61
2021/11/25 02:25:27;;;;;;;;;25.25;21.75;;;;;5.43;65.99;100503.34;5076398;28;45139;-61
2021/11/25 02:27:52;;;;;;;;;25.25;23.25;;;;;5.45;65.64;100490.22;5076017;28;46671;-61
2021/11/25 02:30:18;;;;;;;;;28.75;22.00;;;;;5.47;65.84;100498.78;5057329;28;63902;-61
2021/11/25 02:32:47;;;;;;;;;23.75;21.75;;;;;5.48;65.76;100498.66;5075679;28;59381;-61
2021/11/25 02:35:20;;;;;;;;;29.25;22.00;;;;;5.51;65.54;100492.44;5076257;28;45526;-62
2021/11/25 02:37:46;;;;;;;;;24.25;22.00;;;;;5.54;65.45;100493.97;5058560;28;45408;-61
2021/11/25 02:40:20;;;;;;;;;20.50;20.00;;;;;5.56;65.34;100484.28;5054564;28;45562;-61
2021/11/25 02:42:48;;;;;;;;;27.00;20.75;;;;;5.58;65.25;100485.00;5056023;28;45234;-61
2021/11/25 02:45:14;;;;;;;;;25.50;24.25;;;;;5.61;65.14;100484.81;5038010;28;45579;-61
2021/11/25 02:47:39;;;;;;;;;25.75;24.25;;;;;5.63;65.35;100490.75;5054995;28;69237;-61
2021/11/25 02:50:05;;;;;;;;;31.00;24.00;;;;;5.65;65.08;100481.88;5055132;28;65193;-61
2021/11/25 02:52:30;;;;;;;;;28.50;22.00;;;;;5.68;64.89;100486.06;5055708;28;45313;-61
2021/11/25 02:54:56;;;;;;;;;28.25;23.75;;;;;5.68;64.89;100483.44;5055100;28;62573;-61
2021/11/25 02:57:21;;;;;;;;;22.50;21.00;;;;;5.71;64.75;100488.44;5054810;28;68680;-62
2021/11/25 02:59:46;;;;;;;;;22.50;21.75;;;;;5.73;64.72;100481.38;5055597;28;45549;-61
2021/11/25 03:02:12;;;;;;;;;32.50;26.25;;;;;5.76;64.56;100481.16;5055904;28;45663;-61
2021/11/25 03:04:37;;;;;;;;;28.25;23.25;;;;;5.77;64.54;100481.97;5055179;28;60408;-62
2021/11/25 03:07:02;;;;;;;;;26.75;22.50;;;;;5.76;64.45;100486.38;5054725;28;67260;-61
2021/11/25 03:09:28;;;;;;;;;20.00;18.00;;;;;5.75;64.51;100484.69;5053636;28;64699;-61
2021/11/25 03:11:54;;;;;;;;;29.00;23.25;;;;;5.76;64.28;100491.59;5055473;28;45447;-61
2021/11/25 03:14:20;;;;;;;;;30.25;21.50;;;;;5.78;64.39;100486.25;5055429;28;45514;-61
2021/11/25 03:16:45;;;;;;;;;25.50;21.50;;;;;5.78;64.15;100481.88;5055371;28;45380;-61
2021/11/25 03:19:12;;;;;;;;;28.25;25.75;;;;;5.80;64.38;100484.38;5054792;28;63786;-61
2021/11/25 03:21:37;;;;;;;;;27.75;23.50;;;;;5.80;64.37;100479.16;5055630;28;45340;-61
2021/11/25 03:24:03;;;;;;;;;28.00;22.50;;;;;5.82;64.17;100477.28;5055404;28;45392;-61
2021/11/25 03:26:29;;;;;;;;;23.25;22.00;;;;;5.83;64.31;100470.31;5055091;28;46161;-61
2021/11/25 03:28:55;;;;;;;;;29.75;23.00;;;;;5.83;64.09;100465.09;5055343;28;45383;-61
2021/11/25 03:31:24;;;;;;;;;26.75;22.75;;;;;5.83;63.97;100476.34;5055424;28;45329;-61
2021/11/25 03:33:49;;;;;;;;;26.25;25.50;;;;;5.82;64.18;100471.25;5037624;28;45227;-61
2021/11/25 03:36:15;;;;;;;;;26.50;23.75;;;;;5.81;64.03;100465.19;5058144;28;60522;-61
2021/11/25 03:38:40;;;;;;;;;24.00;23.00;;;;;5.82;64.18;100472.06;5058226;28;57879;-61
2021/11/25 03:41:07;;;;;;;;;30.25;24.75;;;;;5.84;64.36;100470.19;5057179;28;45423;-61
2021/11/25 03:43:32;;;;;;;;;30.75;23.25;;;;;5.87;64.14;100463.91;5040526;28;45459;-61
2021/11/25 03:45:58;;;;;;;;;27.00;23.75;;;;;5.87;64.03;100459.53;5058442;28;46432;-61
2021/11/25 03:48:28;;;;;;;;;25.75;21.25;;;;;5.86;64.03;100463.09;5058312;28;45452;-61
2021/11/25 03:50:53;;;;;;;;;28.75;21.25;;;;;5.87;63.86;100463.91;5058649;28;45231;-61
2021/11/25 03:53:18;;;;;;;;;24.50;21.00;;;;;5.86;63.78;100464.84;5039894;28;49212;-61
2021/11/25 03:55:44;;;;;;;;;22.00;19.00;;;;;5.86;64.07;100467.44;5040301;28;46215;-61
2021/11/25 03:58:09;;;;;;;;;28.25;22.75;;;;;5.87;63.97;100458.69;5057651;28;64753;-62
2021/11/25 04:00:35;;;;;;;;;28.25;18.50;;;;;5.89;64.07;100459.41;5057833;28;60921;-61
2021/11/25 04:03:00;;;;;;;;;21.50;17.50;;;;;5.91;63.94;100460.13;5058331;28;45286;-61
2021/11/25 04:05:26;;;;;;;;;22.50;18.25;;;;;5.91;63.80;100454.94;5058176;28;45351;-61
2021/11/25 04:07:51;;;;;;;;;23.25;21.50;;;;;5.93;63.70;100463.47;5058194;28;45502;-61
2021/11/25 04:10:17;;;;;;;;;28.00;20.50;;;;;5.95;63.76;100464.19;5057517;28;62418;-61
2021/11/25 04:12:42;;;;;;;;;29.50;21.50;;;;;5.97;63.63;100456.28;5057054;28;45427;-61
2021/11/25 04:15:08;;;;;;;;;26.25;20.25;;;;;5.97;63.40;100451.88;5057925;28;45554;-61
2021/11/25 04:17:34;;;;;;;;;23.50;19.00;;;;;5.93;63.29;100456.50;5056901;28;45942;-62
2021/11/25 04:19:59;;;;;;;;;20.25;16.25;;;;;5.90;63.48;100459.31;5058300;28;45269;-61
2021/11/25 04:22:25;;;;;;;;;22.00;19.75;;;;;5.87;63.63;100456.94;5057471;28;56987;-61
2021/11/25 04:24:51;;;;;;;;;22.25;20.00;;;;;5.85;63.53;100455.34;5057862;28;46269;-61
2021/11/25 04:27:16;;;;;;;;;21.50;21.00;;;;;5.82;63.37;100451.19;5057851;28;45821;-61
2021/11/25 04:29:45;;;;;;;;;29.75;23.25;;;;;5.79;63.53;100462.69;5058115;28;45451;-62
2021/11/25 04:37:40;;;;;;;;;23.75;18.75;;;;;5.70;63.61;100454.66;5057702;28;45861;-61
2021/11/25 04:40:06;;;;;;;;;20.50;18.50;;;;;5.65;63.61;100454.97;5061795;28;45662;-61
2021/11/25 04:42:33;;;;;;;;;25.00;21.75;;;;;5.60;63.66;100457.06;5077881;28;45405;-61
2021/11/25 04:44:58;;;;;;;;;24.75;20.25;;;;;5.55;63.90;100469.59;5077006;28;66443;-61
2021/11/25 04:47:23;;;;;;;;;21.50;18.25;;;;;5.49;63.78;100468.25;5076936;28;67254;-61
2021/11/25 04:49:49;;;;;;;;;25.75;19.75;;;;;5.45;63.82;100467.59;5077132;28;62673;-61
2021/11/25 04:52:14;;;;;;;;;23.75;21.75;;;;;5.42;64.16;100461.78;5076889;28;69330;-61
2021/11/25 04:54:40;;;;;;;;;25.75;21.75;;;;;5.35;63.80;100462.19;5077586;28;45976;-61
2021/11/25 04:57:06;;;;;;;;;25.50;18.75;;;;;5.31;64.20;100460.72;5077626;28;45308;-61
2021/11/25 04:59:31;;;;;;;;;21.50;21.50;;;;;5.24;64.20;100454.25;5077642;28;45224;-61
2021/11/25 05:01:56;;;;;;;;;23.25;22.50;;;;;5.19;64.40;100453.72;5077160;28;54625;-61
2021/11/25 05:04:22;;;;;;;;;26.75;22.25;;;;;5.14;64.23;100455.81;5077504;28;47967;-62
2021/11/25 05:06:47;;;;;;;;;27.50;22.25;;;;;5.08;64.51;100467.47;5077539;28;45235;-61
2021/11/25 05:09:13;;;;;;;;;27.25;21.75;;;;;5.00;64.48;100462.78;5058668;28;61248;-61
2021/11/25 05:11:39;;;;;;;;;28.50;22.00;;;;;4.90;64.36;100465.16;5077459;28;45329;-61
2021/11/25 05:14:04;;;;;;;;;31.25;25.75;;;;;4.83;64.59;100458.69;5077551;28;45529;-61
2021/11/25 05:16:29;;;;;;;;;32.75;25.75;;;;;4.75;65.02;100455.78;5077254;28;49194;-61
2021/11/25 05:18:55;;;;;;;;;33.75;26.50;;;;;4.67;65.22;100452.81;5077005;28;59855;-61
2021/11/25 05:21:20;;;;;;;;;35.25;26.50;;;;;4.58;65.55;100459.44;5077486;28;45460;-61
2021/11/25 05:23:46;;;;;;;;;33.50;31.25;;;;;4.49;66.18;100447.88;5077278;28;45494;-61
2021/11/25 05:26:11;;;;;;;;;41.75;30.75;;;;;4.43;66.13;100445.66;5077126;28;45373;-61
2021/11/25 05:28:37;;;;;;;;;42.50;34.25;;;;;4.38;66.83;100451.16;5077344;28;45959;-61
2021/11/25 05:31:02;;;;;;;;;48.25;35.25;;;;;4.30;67.19;100450.81;5077022;28;46385;-61
2021/11/25 05:33:28;;;;;;;;;44.75;36.25;;;;;4.25;67.16;100456.28;5075967;28;68552;-61
2021/11/25 05:35:53;;;;;;;;;47.25;36.00;;;;;4.21;67.58;100465.25;5059054;28;45420;-61
2021/11/25 05:38:18;;;;;;;;;48.50;37.25;;;;;4.17;67.79;100461.16;5077163;28;45836;-61
2021/11/25 05:40:45;;;;;;;;;45.25;37.00;;;;;4.14;68.10;100451.78;5057913;28;65474;-61
2021/11/25 05:43:10;;;;;;;;;43.50;36.25;;;;;4.12;67.87;100453.63;5076718;28;46664;-62
2021/11/25 05:45:36;;;;;;;;;51.50;37.50;;;;;4.08;68.36;100456.53;5058801;28;45355;-61
2021/11/25 05:48:01;;;;;;;;;53.00;41.75;;;;;4.05;68.25;100457.56;5076211;28;60363;-61
2021/11/25 05:50:26;;;;;;;;;59.50;43.00;;;;;4.03;68.36;100466.41;5076210;28;63224;-61
2021/11/25 05:52:53;;;;;;;;;56.25;44.50;;;;;3.98;68.61;100467.50;5058498;28;45695;-61
2021/11/25 05:55:19;;;;;;;;;61.25;43.25;;;;;3.96;68.81;100464.16;5057997;28;45288;-61
2021/11/25 05:57:44;;;;;;;;;53.75;41.25;;;;;3.93;68.84;100469.56;5076182;28;45215;-61
2021/11/25 06:00:12;;;;;;;;;59.00;46.00;;;;;3.90;68.70;100477.53;5076888;28;45234;-62
2021/11/25 06:02:38;;;;;;;;;57.00;41.50;;;;;3.87;68.67;100485.53;5058507;28;45866;-61
2021/11/25 06:05:04;;;;;;;;;64.50;46.75;;;;;3.83;68.92;100489.25;5057857;28;45419;-61
2021/11/25 06:07:30;;;;;;;;;59.75;46.25;;;;;3.77;69.27;100487.00;5076646;28;45470;-61
2021/11/25 06:09:55;;;;;;;;;56.50;42.25;;;;;3.75;69.20;100496.66;5076496;28;45331;-61
2021/11/25 06:12:20;;;;;;;;;60.50;41.00;;;;;3.74;69.43;100500.19;5057143;28;69985;-61
2021/11/25 06:14:46;;;;;;;;;60.25;46.00;;;;;3.72;69.45;100503.72;5058101;28;45556;-61
2021/11/25 06:17:11;;;;;;;;;61.25;42.50;;;;;3.70;69.37;100500.41;5075500;28;64395;-62
2021/11/25 06:19:36;;;;;;;;;60.50;45.50;;;;;3.68;69.43;100502.25;5075394;28;66914;-61
2021/11/25 06:22:02;;;;;;;;;54.00;42.75;;;;;3.65;69.42;100489.44;5075120;28;70323;-61
2021/11/25 06:24:27;;;;;;;;;63.50;47.50;;;;;3.64;69.29;100486.94;5076120;28;45333;-61
2021/11/25 06:26:53;;;;;;;;;61.50;48.00;;;;;3.61;69.33;100485.34;5075452;28;60037;-61
2021/11/25 06:29:18;;;;;;;;;65.50;47.25;;;;;3.58;69.33;100488.16;5076230;28;45528;-61
2021/11/25 06:31:44;;;;;;;;;60.00;46.50;;;;;3.55;69.72;100490.91;5075242;28;66846;-62
2021/11/25 06:34:10;;;;;;;;;63.50;43.75;;;;;3.52;69.42;100491.09;5075736;28;45270;-61
2021/11/25 06:36:36;;;;;;;;;61.75;46.75;;;;;3.48;69.82;100487.84;5075996;28;45388;-61
2021/11/25 06:39:02;;;;;;;;;60.25;45.50;;;;;3.46;69.34;100486.28;5075933;28;45331;-61
2021/11/25 06:41:27;;;;;;;;;56.50;44.25;;;;;3.44;69.76;100488.13;5075315;28;45453;-62
2021/11/25 06:43:53;;;;;;;;;54.75;43.25;;;;;3.42;69.62;100489.06;5075368;28;45257;-61
2021/11/25 06:46:18;;;;;;;;;62.75;45.25;;;;;3.40;69.72;100493.50;5075839;28;45249;-61
2021/11/25 06:48:43;;;;;;;;;66.00;46.00;;;;;3.41;69.72;100495.16;5074982;28;63486;-61
2021/11/25 06:51:09;;;;;;;;;63.75;44.00;;;;;3.41;69.82;100497.75;5074669;28;70211;-61
2021/11/25 06:53:34;;;;;;;;;61.00;47.50;;;;;3.41;70.00;100499.53;5075085;28;59588;-61
2021/11/25 06:55:59;;;;;;;;;63.25;46.50;;;;;3.41;69.65;100502.97;5074752;28;63038;-61
2021/11/25 06:58:25;;;;;;;;;64.00;48.00;;;;;3.39;69.86;100502.22;5075458;28;45622;-61
2021/11/25 07:00:51;;;;;;;;;65.25;48.50;;;;;3.40;69.88;100513.47;5075481;28;45424;-61
2021/11/25 07:03:16;;;;;;;;;64.50;49.50;;;;;3.37;70.17;100511.84;5075452;28;45533;-61
2021/11/25 07:05:41;;;;;;;;;63.50;47.00;;;;;3.38;69.95;100512.72;5057517;28;45816;-62
2021/11/25 07:08:07;;;;;;;;;67.75;48.00;;;;;3.37;70.04;100517.06;5074819;28;60924;-61
2021/11/25 07:10:33;;;;;;;;;71.75;51.25;;;;;3.34;69.83;100529.41;5078057;28;45507;-61
2021/11/25 07:12:59;;;;;;;;;61.00;47.25;;;;;3.34;69.82;100540.59;5079007;28;45288;-61
2021/11/25 07:15:25;;;;;;;;;60.25;43.00;;;;;3.32;70.02;100546.81;5078831;28;45411;-61
2021/11/25 07:17:51;;;;;;;;;65.25;46.25;;;;;3.31;69.93;100542.56;5078901;28;46414;-61
2021/11/25 07:20:16;;;;;;;;;65.50;48.25;;;;;3.32;69.70;100536.44;5078639;28;46158;-61
2021/11/25 07:22:42;;;;;;;;;65.50;49.50;;;;;3.30;69.39;100548.69;5078523;28;45363;-61
2021/11/25 07:25:09;;;;;;;;;63.25;49.00;;;;;3.27;69.68;100544.47;5060197;28;56670;-61
2021/11/25 07:27:34;;;;;;;;;65.50;50.75;;;;;3.27;69.34;100544.47;5060873;28;45574;-61
2021/11/25 07:29:59;;;;;;;;;68.00;45.50;;;;;3.26;69.09;100548.00;5078528;28;45538;-60
2021/11/25 07:32:25;;;;;;;;;65.75;48.75;;;;;3.22;69.14;100549.09;5078122;28;53338;-60
2021/11/25 07:34:51;;;;;;;;;61.75;46.75;;;;;3.19;69.11;100557.06;5078435;28;45661;-60
2021/11/25 07:37:17;;;;;;;;;62.75;43.50;;;;;3.16;68.94;100545.09;5077964;28;45605;-60
2021/11/25 07:39:43;;;;;;;;;58.25;44.25;;;;;3.11;68.89;100550.56;5076297;28;45509;-60
2021/11/25 07:42:08;;;;;;;;;60.00;44.50;;;;;3.10;68.85;100551.50;5060457;28;45265;-60
2021/11/25 07:44:34;;;;;;;;;60.75;47.25;;;;;3.09;69.13;100554.16;5077832;28;56233;-60
2021/11/25 07:46:59;;;;;;;;;60.50;46.25;;;;;3.09;68.83;100568.00;5059372;28;61224;-60
2021/11/25 07:49:25;;;;;;;;;61.25;43.00;;;;;3.08;68.53;100568.91;5077733;28;58386;-60
2021/11/25 07:51:51;;;;;;;;;67.75;45.25;;;;;3.06;68.58;100580.28;5077349;28;45836;-60
2021/11/25 07:54:16;;;;;;;;;63.00;43.50;;;;;3.01;69.02;100575.38;5060092;28;45519;-60
2021/11/25 07:56:42;;;;;;;;;57.75;44.25;;;;;2.98;68.96;100575.53;5077040;28;45395;-60
2021/11/25 07:59:07;;;;;;;;;55.00;44.00;;;;;3.01;69.23;100587.50;5078297;28;45470;-60
2021/11/25 08:01:33;;;;;;;;;91.25;70.75;;;;;3.00;69.32;100591.88;5077761;28;45346;-60
2021/11/25 08:03:58;;;;;;;;;60.00;44.00;;;;;2.99;69.23;100592.78;5078045;28;45353;-59
2021/11/25 08:06:23;;;;;;;;;60.50;44.00;;;;;3.00;68.82;100594.47;5077232;28;64564;-60
2021/11/25 08:08:49;;;;;;;;;58.50;43.75;;;;;3.01;69.23;100596.13;5059246;28;61464;-60
2021/11/25 08:11:14;;;;;;;;;65.00;46.75;;;;;3.02;69.29;100602.16;5059433;28;55858;-60
2021/11/25 08:13:40;;;;;;;;;60.75;44.75;;;;;3.03;69.40;100614.22;5077282;28;55530;-60
2021/11/25 08:16:05;;;;;;;;;62.25;47.50;;;;;3.03;69.45;100615.06;5077406;28;58393;-60
2021/11/25 08:18:30;;;;;;;;;59.25;45.75;;;;;3.05;69.91;100613.22;5077532;28;52598;-60
2021/11/25 08:20:56;;;;;;;;;64.25;47.50;;;;;3.08;69.47;100612.19;5077437;28;45494;-60
2021/11/25 08:23:21;;;;;;;;;64.75;47.75;;;;;3.13;70.25;100619.75;5077297;28;57104;-60
2021/11/25 08:25:47;;;;;;;;;59.00;46.75;;;;;3.17;70.22;100623.84;5077803;28;45583;-60
2021/11/25 08:28:12;;;;;;;;;66.50;46.25;;;;;3.22;70.21;100629.59;5077712;28;45560;-60
2021/11/25 08:30:37;;;;;;;;;68.50;50.25;;;;;3.29;70.12;100617.13;5076761;28;62497;-60
2021/11/25 08:33:03;;;;;;;;;66.00;49.00;;;;;3.33;70.02;100611.66;5076787;28;63160;-60
2021/11/25 08:35:29;;;;;;;;;64.75;50.00;;;;;3.37;70.06;100614.94;5077745;28;45253;-61
2021/11/25 08:37:56;;;;;;;;;66.25;51.25;;;;;3.39;70.08;100629.50;5078421;27;45299;-61
2021/11/25 08:40:22;;;;;;;;;64.50;46.75;;;;;3.45;70.15;100635.25;5073139;27;45823;-60
2021/11/25 08:42:47;;;;;;;;;58.50;45.00;;;;;3.49;70.28;100628.97;5069269;27;45513;-60
2021/11/25 08:45:14;;;;;;;;;64.50;47.50;;;;;3.56;70.08;100625.09;5076624;27;45598;-61
2021/11/25 08:47:39;;;;;;;;;61.25;46.75;;;;;3.61;70.04;100624.81;5059451;27;45660;-60
2021/11/25 08:50:09;;;;;;;;;63.00;45.75;;;;;3.67;70.04;100614.91;5076295;27;48002;-60
2021/11/25 08:52:34;;;;;;;;;62.75;44.75;;;;;3.71;70.24;100616.38;5075732;27;45473;-60
2021/11/25 08:55:00;;;;;;;;;75.00;54.25;;;;;3.76;70.35;100629.13;5079287;27;53398;-60
2021/11/25 08:57:25;;;;;;;;;77.25;59.50;;;;;3.82;70.31;100618.38;5081467;27;45988;-60
2021/11/25 08:59:51;;;;;;;;;77.75;57.00;;;;;3.87;70.25;100615.50;5082772;27;45453;-60
2021/11/25 09:02:16;;;;;;;;;71.50;53.50;;;;;3.94;70.01;100622.00;5076144;27;45642;-60
2021/11/25 09:04:41;;;;;;;;;80.50;54.75;;;;;4.01;70.06;100628.53;5078525;27;45602;-60
2021/11/25 09:07:07;;;;;;;;;72.50;51.25;;;;;4.09;70.30;100624.63;5074606;27;69866;-60
2021/11/25 09:09:32;;;;;;;;;68.50;52.25;;;;;4.15;69.99;100621.66;5078080;27;45472;-60
2021/11/25 09:11:58;;;;;;;;;74.00;55.00;;;;;4.21;69.95;100629.09;5084576;27;61618;-60
2021/11/25 09:14:23;;;;;;;;;75.00;53.50;;;;;4.28;69.72;100621.75;5084088;27;45496;-60
2021/11/25 09:16:49;;;;;;;;;70.50;53.75;;;;;4.37;69.85;100612.53;5076465;27;67466;-60
2021/11/25 09:19:15;;;;;;;;;70.25;53.00;;;;;4.48;69.74;100604.91;5067094;27;45891;-60
2021/11/25 09:21:40;;;;;;;;;69.25;52.00;;;;;4.62;69.50;100606.66;5059296;27;45391;-61
2021/11/25 09:24:06;;;;;;;;;75.50;51.25;;;;;4.77;69.30;100615.25;5077516;27;59526;-60
2021/11/25 09:26:32;;;;;;;;;74.75;51.50;;;;;4.94;68.99;100615.97;5078828;27;45579;-60
2021/11/25 09:28:58;;;;;;;;;70.50;50.50;;;;;5.09;68.65;100608.94;5079664;27;45881;-60
2021/11/25 09:31:27;;;;;;;;;67.25;51.00;;;;;5.25;68.36;100608.81;5082457;27;45494;-61
2021/11/25 09:33:52;;;;;;;;;69.75;53.75;;;;;5.44;68.09;100598.84;5080056;27;45627;-61
2021/11/25 09:36:18;;;;;;;;;65.75;48.75;;;;;5.61;67.92;100599.50;5063520;27;45776;-61
2021/11/25 09:38:43;;;;;;;;;72.25;52.75;;;;;5.80;67.38;100596.50;5087125;27;65049;-60
2021/11/25 09:41:08;;;;;;;;;68.25;51.75;;;;;6.00;67.15;100602.97;5088898;27;61842;-61
2021/11/25 09:43:34;;;;;;;;;66.25;50.00;;;;;6.16;66.53;100607.16;5086197;27;45410;-60
2021/11/25 09:46:01;;;;;;;;;66.75;48.50;;;;;6.31;65.93;100600.88;5074912;27;46482;-61
2021/11/25 09:48:28;;;;;;;;;68.50;52.50;;;;;6.46;65.63;100593.75;5074561;27;45868;-61
2021/11/25 09:50:54;;;;;;;;;72.75;53.25;;;;;6.60;65.24;100590.16;5075530;27;45477;-60
2021/11/25 09:53:20;;;;;;;;;68.25;53.00;;;;;6.74;65.06;100590.97;5074789;27;45471;-60
2021/11/25 09:55:48;;;;;;;;;65.75;49.25;;;;;6.85;64.28;100585.81;5056584;27;46305;-60
2021/11/25 09:58:15;;;;;;;;;66.75;49.25;;;;;6.95;64.07;100602.47;5057026;27;45584;-60
2021/11/25 10:00:42;;;;;;;;;69.75;51.00;;;;;7.00;63.70;100589.09;5074966;27;45514;-60
2021/11/25 10:03:08;;;;;;;;;71.50;52.50;;;;;7.05;63.58;100599.19;5074524;27;45484;-61
2021/11/25 10:05:33;;;;;;;;;74.00;53.75;;;;;7.09;63.29;100598.03;5075405;27;45501;-61
2021/11/25 10:07:58;;;;;;;;;70.50;50.75;;;;;7.15;62.97;100597.56;5074219;27;65834;-60
2021/11/25 10:10:28;;;;;;;;;60.50;47.75;;;;;7.18;62.75;100597.34;5073572;27;45469;-61
2021/11/25 10:13:14;;;;;;;;;70.75;53.25;;;;;7.22;62.65;100600.56;5073699;27;45427;-61
2021/11/25 10:15:39;;;;;;;;;69.75;51.75;;;;;7.24;62.27;100599.53;5074609;27;46401;-61
2021/11/25 10:18:06;;;;;;;;;72.50;52.75;;;;;7.18;62.28;100602.56;5055516;28;45475;-61
2021/11/25 10:20:34;;;;;;;;;66.25;48.00;;;;;7.15;62.35;100600.19;5077903;27;45415;-60
2021/11/25 10:23:02;;;;;;;;;68.75;51.50;;;;;7.10;62.60;100597.94;5075213;27;45443;-60
2021/11/25 10:25:57;;;;;;;;;52.50;37.75;;;;;7.06;62.58;100591.25;5074082;27;46623;-60
2021/11/25 10:28:47;;;;;;;;;67.75;49.75;;;;;7.04;62.54;100592.28;5066498;27;46000;-60
2021/11/25 10:31:12;;;;;;;;;70.50;51.50;;;;;7.00;62.43;100596.06;5081782;27;45437;-62
2021/11/25 10:33:52;;;;;;;;;67.67;50.33;;;;;7.00;62.86;100603.91;5084156;27;45590;-61
2021/11/25 10:39:25;;;;;;;;;67.75;49.25;;;;;7.08;62.92;100597.19;5059198;27;45436;-60
2021/11/25 10:41:53;;;;;;;;;65.00;48.00;;;;;7.13;62.62;100597.69;5080266;27;45511;-61
2021/11/25 10:44:23;;;;;;;;;65.00;48.25;;;;;7.16;62.45;100601.00;5075332;27;45645;-60
2021/11/25 10:47:03;;;;;;;;;65.25;51.00;;;;;7.18;62.31;100597.34;5078134;27;46524;-61
2021/11/25 10:49:47;;;;;;;;;67.00;48.25;;;;;7.16;62.31;100587.94;5078355;27;45828;-60
2021/11/25 10:52:12;;;;;;;;;65.75;50.25;;;;;7.13;62.08;100584.63;5077033;27;45441;-61
2021/11/25 10:54:42;;;;;;;;;69.33;48.67;;;;;7.11;62.17;100593.50;5077878;27;45509;-60
2021/11/25 10:57:08;;;;;;;;;64.00;49.25;;;;;7.06;62.29;100577.34;5065805;27;47828;-61
2021/11/25 10:59:38;;;;;;;;;61.50;45.75;;;;;7.03;62.45;100572.34;5075800;27;69196;-61
2021/11/25 11:02:20;;;;;;;;;71.25;52.00;;;;;7.02;62.43;100571.53;5078017;27;45462;-61
2021/11/25 11:04:46;;;;;;;;;64.75;49.00;;;;;7.02;62.93;100573.28;5065496;27;45493;-60
2021/11/25 11:07:30;;;;;;;;;68.50;51.00;;;;;7.04;63.00;100563.56;5086669;27;45466;-60
2021/11/25 11:09:55;;;;;;;;;68.00;52.25;;;;;7.05;63.30;100565.22;5080238;27;45834;-61
2021/11/25 11:12:33;;;;;;;;;69.25;51.00;;;;;7.06;63.52;100566.88;5076853;27;45593;-60
2021/11/25 11:15:49;;;;;;;;;68.00;50.25;;;;;7.08;63.32;100567.63;5078402;27;45409;-61
2021/11/25 11:20:27;;;;;;;;;71.75;52.25;;;;;7.10;63.57;100574.41;5078282;27;45889;-60
2021/11/25 11:22:55;;;;;;;;;69.75;53.25;;;;;7.11;63.70;100572.63;5078459;27;45724;-61
2021/11/25 11:25:22;;;;;;;;;65.75;50.25;;;;;7.11;63.39;100568.25;5075589;27;45395;-60